XCJ YBHM-YBCS
Flight info
| Callsign | XCJ |
|---|---|
| Flight time | N/A |
| Altitude | 32000 |
| Route | OVRON Q67 CS |
| Aircraft | C750/M-SBDE3FGHRWXY/S |
Departure
| Time | 2026-04-27 08:14 |
|---|---|
| Airport | Hamilton Island Airport (YBHM) |
Arrival
| Time | N/A |
|---|---|
| Airport | Cairns International Airport (YBCS) |
| Time | Latitude | Longitude | Altitude | Speed | Heading |
|---|---|---|---|---|---|
| 2026-04-27 07:59 | -20.35279 | 148.95025 | 18 ft | 0 kts | 359° |
| 2026-04-27 08:08 | -20.35272 | 148.95021 | 20 ft | 2 kts | 320° |
| 2026-04-27 08:09 | -20.35271 | 148.94995 | 18 ft | 5 kts | 271° |
| 2026-04-27 08:09 | -20.35264 | 148.94955 | 18 ft | 6 kts | 283° |
| 2026-04-27 08:09 | -20.35258 | 148.94915 | 18 ft | 5 kts | 268° |
| 2026-04-27 08:09 | -20.35254 | 148.94882 | 18 ft | 4 kts | 303° |
| 2026-04-27 08:10 | -20.35234 | 148.94866 | 18 ft | 3 kts | 308° |
| 2026-04-27 08:10 | -20.35232 | 148.94864 | 18 ft | 0 kts | 308° |
| 2026-04-27 08:10 | -20.35233 | 148.94856 | 18 ft | 2 kts | 260° |
| 2026-04-27 08:10 | -20.35234 | 148.94855 | 18 ft | 0 kts | 249° |
| 2026-04-27 08:12 | -20.35235 | 148.94853 | 18 ft | 2 kts | 249° |
| 2026-04-27 08:12 | -20.35247 | 148.94832 | 18 ft | 4 kts | 233° |
| 2026-04-27 08:12 | -20.35261 | 148.94812 | 18 ft | 2 kts | 233° |
| 2026-04-27 08:12 | -20.35278 | 148.94795 | 19 ft | 6 kts | 204° |
| 2026-04-27 08:13 | -20.35373 | 148.94865 | 22 ft | 56 kts | 143° |
| 2026-04-27 08:13 | -20.35955 | 148.95342 | 159 ft | 131 kts | 139° |
| 2026-04-27 08:13 | -20.36678 | 148.95968 | 306 ft | 129 kts | 142° |
| 2026-04-27 08:13 | -20.37449 | 148.96560 | 440 ft | 135 kts | 137° |
| 2026-04-27 08:14 | -20.38021 | 148.97206 | 1698 ft | 112 kts | 131° |
| 2026-04-27 08:14 | -20.38704 | 148.97784 | 2126 ft | 146 kts | 142° |
| 2026-04-27 08:14 | -20.39290 | 148.98954 | 1655 ft | 220 kts | 103° |
| 2026-04-27 08:14 | -20.38940 | 149.00632 | 1064 ft | 259 kts | 66° |
| 2026-04-27 08:15 | -20.37637 | 149.01876 | 459 ft | 250 kts | 30° |
| 2026-04-27 08:15 | -20.35279 | 148.95025 | 23 ft | 0 kts | 359° |